Time;durP1;ratioP1;P1;durP2;ratioP2;P2;SDS_P1;SDS_P2;PMS_P1;PMS_P2;Temp;Humidity;BMP_temperature;BMP_pressure;BME280_temperature;BME280_humidity;BME280_pressure;Samples;Min_cycle;Max_cycle;Signal;HPM_P1;HPM_P2
2023/04/26 00:02:05;;;;;;;1999.90;999.90;;;29.60;94.70;;;;;;5047696;28;20048;-73
2023/04/26 00:04:34;;;;;;;1999.90;999.90;;;30.20;92.80;;;;;;5053715;28;20036;-69
2023/04/26 00:07:02;;;;;;;1999.90;999.90;;;29.90;93.50;;;;;;5043502;28;20423;-70
2023/04/26 00:09:30;;;;;;;1999.90;999.90;;;29.80;93.40;;;;;;5049760;28;20044;-71
2023/04/26 00:11:57;;;;;;;1999.90;999.90;;;29.60;94.00;;;;;;5049333;28;20082;-71
2023/04/26 00:14:25;;;;;;;1999.90;999.90;;;29.70;93.70;;;;;;5035334;28;20499;-70
2023/04/26 00:16:52;;;;;;;1999.90;999.90;;;29.80;93.20;;;;;;5029173;28;20032;-71
2023/04/26 00:19:20;;;;;;;1999.90;999.90;;;29.40;93.50;;;;;;5045118;28;20029;-70
2023/04/26 00:21:47;;;;;;;1999.90;999.90;;;29.00;94.30;;;;;;5044109;28;20037;-71
2023/04/26 00:24:15;;;;;;;1999.90;999.90;;;28.70;93.50;;;;;;5037366;28;20529;-72
2023/04/26 00:26:42;;;;;;;1999.90;999.90;;;28.20;94.30;;;;;;5031633;28;20041;-70
2023/04/26 00:29:09;;;;;;;1999.90;999.90;;;27.90;94.90;;;;;;5045279;28;20075;-72
2023/04/26 00:31:37;;;;;;;1999.90;999.90;;;27.60;95.10;;;;;;5045508;28;20039;-70
2023/04/26 00:34:04;;;;;;;1999.90;999.90;;;27.50;94.80;;;;;;5040511;28;20033;-71
2023/04/26 00:36:31;;;;;;;1999.90;999.90;;;27.10;94.40;;;;;;5039324;28;20029;-72
2023/04/26 00:38:59;;;;;;;1999.90;999.90;;;26.80;95.20;;;;;;5027258;28;20029;-70
2023/04/26 00:41:26;;;;;;;1999.90;999.90;;;26.70;95.70;;;;;;5036362;28;20124;-72
2023/04/26 00:43:53;;;;;;;1999.90;999.90;;;26.60;96.30;;;;;;5042519;28;20116;-71
2023/04/26 00:46:21;;;;;;;1999.90;999.90;;;26.80;96.70;;;;;;5037684;28;20029;-70
2023/04/26 00:48:50;;;;;;;1999.90;999.90;;;27.40;95.50;;;;;;5048108;28;20024;-72
2023/04/26 00:51:17;;;;;;;1999.90;999.90;;;27.50;94.90;;;;;;5049883;28;20098;-71
2023/04/26 00:53:44;;;;;;;1999.90;999.90;;;27.10;94.70;;;;;;5054960;28;20422;-71
2023/04/26 00:56:12;;;;;;;1999.90;999.90;;;26.50;95.00;;;;;;5054363;28;20057;-70
2023/04/26 00:58:40;;;;;;;1999.90;999.90;;;25.90;95.70;;;;;;5051545;28;20046;-72
2023/04/26 01:01:08;;;;;;;1999.90;999.90;;;25.20;96.70;;;;;;5046140;28;20040;-72
2023/04/26 01:03:36;;;;;;;1999.90;999.90;;;24.90;97.50;;;;;;5045606;28;20032;-73
2023/04/26 01:06:03;;;;;;;1999.90;999.90;;;24.60;98.00;;;;;;5047247;28;20055;-71
2023/04/26 01:08:30;;;;;;;1999.90;999.90;;;24.50;98.10;;;;;;5045667;28;20040;-73
2023/04/26 01:10:59;;;;;;;1999.90;999.90;;;24.60;98.70;;;;;;5038285;28;20144;-74
2023/04/26 01:13:27;;;;;;;1999.90;999.90;;;24.70;98.80;;;;;;5041400;28;20078;-73
2023/04/26 01:15:55;;;;;;;1999.90;999.90;;;24.70;98.20;;;;;;5039044;28;20061;-72
2023/04/26 01:18:23;;;;;;;1999.90;999.90;;;24.70;98.30;;;;;;5034395;28;20033;-73
2023/04/26 01:20:52;;;;;;;1999.90;999.90;;;24.60;98.60;;;;;;5037356;28;20029;-73
2023/04/26 01:23:19;;;;;;;1999.90;999.90;;;24.50;98.40;;;;;;5035265;28;20495;-73
2023/04/26 01:25:47;;;;;;;1999.90;999.90;;;24.30;98.80;;;;;;5037740;28;20037;-72
2023/04/26 01:28:14;;;;;;;1999.90;999.90;;;24.10;98.80;;;;;;5053344;28;20032;-72
2023/04/26 01:30:42;;;;;;;1999.90;999.90;;;23.90;99.80;;;;;;5045464;28;20036;-72
2023/04/26 01:33:10;;;;;;;1999.90;999.90;;;23.80;99.90;;;;;;5045797;28;20029;-73
2023/04/26 01:35:37;;;;;;;1999.90;999.90;;;23.70;99.90;;;;;;5052772;28;20403;-71
2023/04/26 01:38:05;;;;;;;1999.90;999.90;;;23.80;99.90;;;;;;5046237;28;20136;-73
2023/04/26 01:40:32;;;;;;;1999.90;999.90;;;23.70;99.90;;;;;;5042690;28;20408;-74
2023/04/26 01:43:02;;;;;;;1999.90;999.90;;;23.80;99.90;;;;;;5040907;28;20033;-73
2023/04/26 01:45:29;;;;;;;1999.90;999.90;;;24.10;99.60;;;;;;5044114;28;20378;-73
2023/04/26 01:47:57;;;;;;;1999.90;999.90;;;24.90;99.20;;;;;;5054502;28;20025;-72
2023/04/26 01:50:24;;;;;;;1999.90;999.90;;;25.40;98.60;;;;;;5050339;28;20051;-72
2023/04/26 01:52:52;;;;;;;1999.90;999.90;;;25.50;97.50;;;;;;5042575;28;20476;-71
2023/04/26 01:55:19;;;;;;;1999.90;999.90;;;25.90;97.90;;;;;;5045435;28;20045;-71
2023/04/26 01:57:47;;;;;;;1999.90;999.90;;;26.60;98.00;;;;;;5044619;28;20033;-72
2023/04/26 02:00:14;;;;;;;1999.90;999.90;;;27.40;97.40;;;;;;5050842;28;20025;-72
2023/04/26 02:02:42;;;;;;;1999.90;999.90;;;28.00;97.10;;;;;;5043397;28;20052;-70
2023/04/26 02:05:11;;;;;;;1999.90;999.90;;;28.10;96.20;;;;;;5037828;28;20021;-69
2023/04/26 02:07:38;;;;;;;1999.90;999.90;;;27.80;96.50;;;;;;5046886;28;20033;-70
2023/04/26 02:10:13;;;;;;;1999.90;999.90;;;27.30;96.90;;;;;;5044135;28;20041;-70
2023/04/26 02:12:41;;;;;;;1999.90;999.90;;;26.90;96.80;;;;;;5053240;28;20102;-70
2023/04/26 02:15:09;;;;;;;1999.90;999.90;;;26.40;97.00;;;;;;5046036;28;20041;-71
2023/04/26 02:17:36;;;;;;;1999.90;999.90;;;26.00;97.50;;;;;;5045398;28;20056;-70
2023/04/26 02:20:06;;;;;;;1999.90;999.90;;;25.50;97.80;;;;;;5040530;28;20459;-72
2023/04/26 02:22:33;;;;;;;1999.90;999.90;;;25.40;97.90;;;;;;5033408;28;20041;-69
2023/04/26 02:25:00;;;;;;;1999.90;999.90;;;25.30;98.20;;;;;;5031420;28;20025;-70
2023/04/26 02:27:28;;;;;;;1999.90;999.90;;;25.40;97.20;;;;;;5030582;28;20044;-70
2023/04/26 02:29:55;;;;;;;1999.90;999.90;;;25.40;97.50;;;;;;5032166;28;20036;-70
2023/04/26 02:32:22;;;;;;;1999.90;999.90;;;25.50;96.50;;;;;;5034549;28;20060;-70
2023/04/26 02:34:49;;;;;;;1999.90;999.90;;;25.40;97.40;;;;;;5037886;28;20032;-70
2023/04/26 02:37:17;;;;;;;1999.90;999.90;;;25.30;97.30;;;;;;5041641;28;20551;-71
2023/04/26 02:39:44;;;;;;;1999.90;999.90;;;25.00;97.60;;;;;;5042753;28;20033;-70
2023/04/26 02:42:11;;;;;;;1999.90;999.90;;;24.70;97.60;;;;;;5042207;28;20048;-69
2023/04/26 02:44:39;;;;;;;1999.90;999.90;;;24.50;97.70;;;;;;5044963;28;20033;-70
2023/04/26 02:47:06;;;;;;;1999.90;999.90;;;24.40;98.10;;;;;;5046159;28;20510;-69
2023/04/26 02:49:33;;;;;;;1999.90;999.90;;;24.30;98.10;;;;;;5051768;28;20099;-69
2023/04/26 02:52:01;;;;;;;1999.90;999.90;;;24.40;98.20;;;;;;5051149;28;20602;-68
2023/04/26 02:54:28;;;;;;;1999.90;999.90;;;24.60;98.40;;;;;;5045708;28;20025;-69
2023/04/26 02:56:56;;;;;;;1999.90;999.90;;;25.00;97.70;;;;;;5045335;28;20514;-70
2023/04/26 02:59:24;;;;;;;1999.90;999.90;;;25.30;97.50;;;;;;5046693;28;21576;-69
2023/04/26 03:01:51;;;;;;;1999.90;999.90;;;25.60;97.30;;;;;;5046815;28;20037;-70
2023/04/26 03:04:19;;;;;;;1999.90;999.90;;;25.90;97.20;;;;;;5045505;28;20371;-70
2023/04/26 03:06:47;;;;;;;1999.90;999.90;;;26.10;96.70;;;;;;5044840;28;20051;-71
2023/04/26 03:09:14;;;;;;;1999.90;999.90;;;26.10;96.70;;;;;;5037966;28;20163;-69
2023/04/26 03:11:41;;;;;;;1999.90;999.90;;;26.00;97.20;;;;;;5045454;28;20504;-71
2023/04/26 03:14:09;;;;;;;1999.90;999.90;;;26.00;96.70;;;;;;5045039;28;20044;-70
2023/04/26 03:16:43;;;;;;;1999.90;999.90;;;26.10;96.20;;;;;;5042467;28;20044;-69
2023/04/26 03:19:11;;;;;;;1999.90;999.90;;;26.20;95.80;;;;;;5045385;28;20032;-70
2023/04/26 03:21:38;;;;;;;1999.90;999.90;;;26.10;95.80;;;;;;5042742;28;20053;-69
2023/04/26 03:24:06;;;;;;;1999.90;999.90;;;25.90;95.40;;;;;;5046082;28;20036;-71
2023/04/26 03:26:34;;;;;;;1999.90;999.90;;;25.70;96.30;;;;;;5045110;28;20029;-71
2023/04/26 03:29:01;;;;;;;1999.90;999.90;;;25.60;96.40;;;;;;5045785;28;20132;-70
2023/04/26 03:31:29;;;;;;;1999.90;999.90;;;25.50;96.70;;;;;;5045933;28;20035;-70
2023/04/26 03:33:56;;;;;;;1999.90;999.90;;;25.60;96.70;;;;;;5041629;28;20084;-71
2023/04/26 03:36:23;;;;;;;1999.90;999.90;;;25.50;96.90;;;;;;5048805;28;20402;-71
2023/04/26 03:38:51;;;;;;;1999.90;999.90;;;25.30;96.80;;;;;;5051998;28;20055;-69
2023/04/26 03:41:18;;;;;;;1999.90;999.90;;;25.10;97.10;;;;;;5045145;28;20041;-70
2023/04/26 03:43:45;;;;;;;1999.90;999.90;;;25.00;97.00;;;;;;5036582;28;20021;-70
2023/04/26 03:46:13;;;;;;;1999.90;999.90;;;25.00;97.30;;;;;;5043821;28;20553;-70
2023/04/26 03:48:40;;;;;;;1999.90;999.90;;;25.00;97.50;;;;;;5049861;28;20025;-70
2023/04/26 03:51:08;;;;;;;1999.90;999.90;;;25.20;97.40;;;;;;5040704;28;20063;-70
2023/04/26 03:53:35;;;;;;;1999.90;999.90;;;25.50;96.70;;;;;;5042683;28;20581;-69
2023/04/26 03:56:02;;;;;;;1999.90;999.90;;;25.70;96.20;;;;;;5051273;28;20090;-69
2023/04/26 03:58:30;;;;;;;1999.90;999.90;;;25.70;96.00;;;;;;5049344;28;20036;-71
2023/04/26 04:00:57;;;;;;;1999.90;999.90;;;25.60;96.10;;;;;;5049749;28;20116;-70
2023/04/26 04:03:25;;;;;;;1999.90;999.90;;;25.50;96.00;;;;;;5043639;28;20039;-70
2023/04/26 04:05:52;;;;;;;1999.90;999.90;;;25.40;96.20;;;;;;5041404;28;20086;-70
2023/04/26 04:08:19;;;;;;;1999.90;999.90;;;25.30;96.70;;;;;;5047358;28;20024;-71
2023/04/26 04:10:47;;;;;;;1999.90;999.90;;;25.10;96.90;;;;;;5033303;28;20794;-71
2023/04/26 04:13:14;;;;;;;1999.90;999.90;;;25.10;97.20;;;;;;5039177;28;20060;-71
2023/04/26 04:15:41;;;;;;;1999.90;999.90;;;25.20;97.60;;;;;;5038969;28;20032;-71
2023/04/26 04:18:09;;;;;;;1999.90;999.90;;;25.10;96.90;;;;;;5043030;28;20036;-70
2023/04/26 04:20:37;;;;;;;1999.90;999.90;;;25.00;97.40;;;;;;5034337;28;20044;-70
2023/04/26 04:23:08;;;;;;;1999.90;999.90;;;24.80;97.70;;;;;;5032813;28;20178;-69
2023/04/26 04:25:36;;;;;;;1999.90;999.90;;;24.70;97.50;;;;;;5030922;28;20498;-71
2023/04/26 04:28:03;;;;;;;1999.90;999.90;;;24.50;97.20;;;;;;5029839;28;20037;-70
2023/04/26 04:30:31;;;;;;;1999.90;999.90;;;24.30;97.80;;;;;;5033067;28;20028;-70
2023/04/26 04:32:59;;;;;;;1999.90;999.90;;;24.20;97.80;;;;;;5032674;28;20040;-69
2023/04/26 04:35:32;;;;;;;1999.90;999.90;;;24.10;98.40;;;;;;5045168;28;20025;-68
2023/04/26 04:38:01;;;;;;;1999.90;999.90;;;24.10;98.50;;;;;;5045182;28;20033;-68
2023/04/26 04:40:29;;;;;;;1999.90;999.90;;;24.00;98.30;;;;;;5045445;28;20033;-69
2023/04/26 04:42:56;;;;;;;1999.90;999.90;;;24.00;98.60;;;;;;5044519;28;20045;-70
2023/04/26 04:45:24;;;;;;;1999.90;999.90;;;24.10;98.60;;;;;;5043096;28;20021;-70
2023/04/26 04:47:52;;;;;;;1999.90;999.90;;;24.20;98.80;;;;;;5049537;28;20501;-68
2023/04/26 04:50:20;;;;;;;1999.90;999.90;;;24.30;98.50;;;;;;5042415;28;20029;-69
2023/04/26 04:52:48;;;;;;;1999.90;999.90;;;24.30;98.10;;;;;;5051768;28;20067;-71
2023/04/26 04:55:15;;;;;;;1999.90;999.90;;;24.30;98.50;;;;;;5044142;28;20017;-70
2023/04/26 04:57:42;;;;;;;1999.90;999.90;;;24.20;98.50;;;;;;5038233;28;20040;-69
2023/04/26 05:00:14;;;;;;;1999.90;999.90;;;24.20;98.30;;;;;;5040755;28;20094;-69
2023/04/26 05:02:42;;;;;;;1999.90;999.90;;;24.20;98.20;;;;;;5045224;28;20044;-69
2023/04/26 05:05:10;;;;;;;1999.90;999.90;;;24.00;98.60;;;;;;5044667;28;20029;-69
2023/04/26 05:07:37;;;;;;;1999.90;999.90;;;24.00;99.10;;;;;;5042682;28;20103;-70
2023/04/26 05:10:05;;;;;;;1999.90;999.90;;;23.90;99.30;;;;;;5030077;28;20045;-69
2023/04/26 05:12:34;;;;;;;1999.90;999.90;;;23.90;99.40;;;;;;5035258;28;20025;-68
2023/04/26 05:15:01;;;;;;;1999.90;999.90;;;23.90;99.30;;;;;;5049850;28;20029;-69
2023/04/26 05:17:31;;;;;;;1999.90;999.90;;;23.80;99.60;;;;;;5045209;28;20028;-68
2023/04/26 05:19:58;;;;;;;1999.90;999.90;;;23.70;99.60;;;;;;5049435;28;20063;-67
2023/04/26 05:22:27;;;;;;;1999.90;999.90;;;23.60;99.40;;;;;;5060014;28;20039;-69
2023/04/26 05:24:55;;;;;;;1999.90;999.90;;;23.50;99.80;;;;;;5047254;28;20079;-69
2023/04/26 05:27:22;;;;;;;1999.90;999.90;;;23.40;99.90;;;;;;5049889;28;20086;-68
2023/04/26 05:29:49;;;;;;;1999.90;999.90;;;23.30;99.90;;;;;;5047387;28;20478;-68
2023/04/26 05:32:17;;;;;;;1999.90;999.90;;;23.30;99.90;;;;;;5054198;28;20035;-68
2023/04/26 05:34:44;;;;;;;1999.90;999.90;;;23.30;99.90;;;;;;5050901;28;20029;-68
2023/04/26 05:37:11;;;;;;;1999.90;999.90;;;23.30;99.90;;;;;;5052349;28;20036;-68
2023/04/26 05:39:39;;;;;;;1999.90;999.90;;;23.40;99.90;;;;;;5054305;28;20044;-69
2023/04/26 05:42:06;;;;;;;1999.90;999.90;;;23.60;99.90;;;;;;5048137;28;20157;-70
2023/04/26 05:44:34;;;;;;;1999.90;999.90;;;23.70;99.90;;;;;;5045679;28;20021;-70
2023/04/26 05:47:02;;;;;;;1999.90;999.90;;;23.80;99.90;;;;;;5051297;28;20068;-71
2023/04/26 05:49:29;;;;;;;1999.90;999.90;;;23.80;99.90;;;;;;5053888;28;20090;-71
2023/04/26 05:51:59;;;;;;;1999.90;999.90;;;23.90;99.90;;;;;;5054029;28;20056;-69
2023/04/26 05:54:26;;;;;;;1999.90;999.90;;;23.90;99.90;;;;;;5053466;28;20035;-70
2023/04/26 05:56:54;;;;;;;1999.90;999.90;;;23.80;99.90;;;;;;5050525;28;20033;-70
2023/04/26 05:59:21;;;;;;;1999.90;999.90;;;23.70;99.90;;;;;;5045736;28;20151;-70
2023/04/26 06:01:48;;;;;;;1999.90;999.90;;;23.60;99.90;;;;;;5053852;28;20431;-71
2023/04/26 06:04:16;;;;;;;1999.90;999.90;;;23.70;99.90;;;;;;5036446;28;20113;-71
2023/04/26 06:06:43;;;;;;;1999.90;999.90;;;23.80;99.90;;;;;;5050266;28;20044;-70
2023/04/26 06:09:11;;;;;;;1999.90;999.90;;;23.80;99.90;;;;;;5054909;28;20052;-70
2023/04/26 06:11:38;;;;;;;1999.90;999.90;;;23.70;99.90;;;;;;5050758;28;20029;-71
2023/04/26 06:14:05;;;;;;;1999.90;999.90;;;23.80;99.90;;;;;;5048468;28;20163;-71
2023/04/26 06:16:32;;;;;;;1999.90;999.90;;;23.70;99.90;;;;;;5052961;28;20403;-69
2023/04/26 06:19:03;;;;;;;1999.90;999.90;;;23.60;99.90;;;;;;5050271;28;20404;-69
2023/04/26 06:21:30;;;;;;;1999.90;999.90;;;23.50;99.90;;;;;;5049903;28;20037;-69
2023/04/26 06:23:58;;;;;;;1999.90;999.90;;;23.40;99.90;;;;;;5050666;28;20082;-69
2023/04/26 06:26:25;;;;;;;1999.90;999.90;;;23.40;99.90;;;;;;5052516;28;20039;-69
2023/04/26 06:28:52;;;;;;;1999.90;999.90;;;23.30;99.90;;;;;;5055648;28;20042;-70
2023/04/26 06:31:21;;;;;;;1999.90;999.90;;;23.20;99.90;;;;;;5055259;28;20025;-69
2023/04/26 06:33:49;;;;;;;1999.90;999.90;;;23.00;99.90;;;;;;5047530;28;20037;-71
2023/04/26 06:36:16;;;;;;;1999.90;999.90;;;22.80;99.90;;;;;;5054666;28;20047;-70
2023/04/26 06:38:44;;;;;;;1999.90;999.90;;;22.60;99.90;;;;;;5049567;28;20159;-71
2023/04/26 06:41:11;;;;;;;1999.90;999.90;;;22.40;99.90;;;;;;5051436;28;20122;-71
2023/04/26 06:43:38;;;;;;;1999.90;999.90;;;22.40;99.90;;;;;;5052414;28;20033;-71
2023/04/26 06:46:06;;;;;;;1999.90;999.90;;;22.30;99.90;;;;;;5048817;28;20104;-72
2023/04/26 06:48:34;;;;;;;1999.90;999.90;;;22.20;99.90;;;;;;5050790;28;20029;-69
2023/04/26 06:51:06;;;;;;;1999.90;999.90;;;22.20;99.90;;;;;;5050885;28;20029;-72
2023/04/26 06:53:34;;;;;;;1999.90;999.90;;;22.20;99.90;;;;;;5044676;28;20036;-70
2023/04/26 06:56:01;;;;;;;1999.90;999.90;;;22.10;99.90;;;;;;5045531;28;20021;-71
2023/04/26 06:58:28;;;;;;;1999.90;999.90;;;22.10;99.90;;;;;;5046583;28;20033;-70
2023/04/26 07:00:56;;;;;;;1999.90;999.90;;;22.10;99.90;;;;;;5048992;28;20119;-72
2023/04/26 07:03:23;;;;;;;1999.90;999.90;;;22.00;99.90;;;;;;5049306;28;20040;-71
2023/04/26 07:05:50;;;;;;;1999.90;999.90;;;22.00;99.90;;;;;;5049047;28;20029;-71
2023/04/26 07:08:18;;;;;;;1999.90;999.90;;;22.00;99.90;;;;;;5046310;28;20025;-72
2023/04/26 07:10:45;;;;;;;1999.90;999.90;;;22.00;99.90;;;;;;5051257;28;20118;-72
2023/04/26 07:13:16;;;;;;;1999.90;999.90;;;22.10;99.90;;;;;;5052620;28;20402;-72
2023/04/26 07:15:44;;;;;;;1999.90;999.90;;;22.10;99.90;;;;;;5055338;28;20021;-72
2023/04/26 07:18:11;;;;;;;1999.90;999.90;;;22.10;99.90;;;;;;5052265;28;20067;-70
2023/04/26 07:20:38;;;;;;;1999.90;999.90;;;22.00;99.90;;;;;;5055495;28;20020;-71
2023/04/26 07:23:06;;;;;;;1999.90;999.90;;;21.90;99.90;;;;;;5058710;28;20139;-71
2023/04/26 07:25:34;;;;;;;1999.90;999.90;;;21.90;99.90;;;;;;5055295;28;20016;-71
2023/04/26 07:28:04;;;;;;;1999.90;999.90;;;21.70;99.90;;;;;;5051646;28;20028;-70
2023/04/26 07:30:32;;;;;;;1999.90;999.90;;;21.60;99.90;;;;;;5052383;28;20094;-70
2023/04/26 07:32:59;;;;;;;1999.90;999.90;;;21.50;99.90;;;;;;5047982;28;20029;-70
2023/04/26 07:35:26;;;;;;;1999.90;999.90;;;21.30;99.90;;;;;;5056849;28;20029;-72
2023/04/26 07:37:54;;;;;;;1999.90;999.90;;;21.20;99.90;;;;;;5055077;28;20094;-72
2023/04/26 07:40:23;;;;;;;1999.90;999.90;;;21.00;99.90;;;;;;5054309;28;20107;-72
2023/04/26 07:42:50;;;;;;;1999.90;999.90;;;20.90;99.90;;;;;;5047359;28;20037;-72
2023/04/26 07:45:18;;;;;;;1999.90;999.90;;;20.80;99.90;;;;;;5050713;28;20029;-72
2023/04/26 07:47:45;;;;;;;1999.90;999.90;;;20.70;99.90;;;;;;5051754;28;20083;-73
2023/04/26 07:50:13;;;;;;;1999.90;999.90;;;20.60;99.90;;;;;;5040888;28;20061;-72
2023/04/26 07:52:42;;;;;;;1999.90;999.90;;;20.50;99.90;;;;;;5055782;28;20055;-72
2023/04/26 07:55:10;;;;;;;1999.90;999.90;;;20.50;99.90;;;;;;5048932;28;20457;-72
2023/04/26 07:57:37;;;;;;;1999.90;999.90;;;20.40;99.90;;;;;;5048149;28;20071;-73
2023/04/26 08:00:09;;;;;;;1999.90;999.90;;;20.30;99.90;;;;;;5047049;28;20032;-72
2023/04/26 08:02:36;;;;;;;1999.90;999.90;;;20.20;99.90;;;;;;5053301;28;20372;-72
2023/04/26 08:05:04;;;;;;;1999.90;999.90;;;20.20;99.90;;;;;;5045782;28;20025;-73
2023/04/26 08:07:32;;;;;;;1999.90;999.90;;;20.10;99.90;;;;;;5048371;28;20032;-72
2023/04/26 08:09:59;;;;;;;1999.90;999.90;;;20.00;99.90;;;;;;5047488;28;20076;-72
2023/04/26 08:12:27;;;;;;;1999.90;999.90;;;20.00;99.90;;;;;;5045625;28;20029;-71
2023/04/26 08:14:54;;;;;;;1999.90;999.90;;;19.90;99.90;;;;;;5057507;28;20386;-73
2023/04/26 08:17:21;;;;;;;1999.90;999.90;;;19.80;99.90;;;;;;5050717;28;20061;-72
2023/04/26 08:19:49;;;;;;;1999.90;999.90;;;19.80;99.90;;;;;;5045743;28;20049;-72
2023/04/26 08:22:16;;;;;;;1999.90;999.90;;;19.70;99.90;;;;;;5058365;28;20418;-70
2023/04/26 08:24:49;;;;;;;1999.90;999.90;;;19.60;99.90;;;;;;5049929;28;20021;-71
2023/04/26 08:27:18;;;;;;;1999.90;999.90;;;19.60;99.90;;;;;;5064281;28;20167;-71
2023/04/26 08:29:45;;;;;;;1999.90;999.90;;;19.60;99.90;;;;;;5050952;28;20052;-73
2023/04/26 08:32:13;;;;;;;1999.90;999.90;;;19.50;99.90;;;;;;5056248;28;20533;-73
2023/04/26 08:34:40;;;;;;;1999.90;999.90;;;19.50;99.90;;;;;;5054301;28;20029;-72
2023/04/26 08:37:07;;;;;;;1999.90;999.90;;;19.40;99.90;;;;;;5048039;28;20148;-73
2023/04/26 08:39:35;;;;;;;1999.90;999.90;;;19.40;99.90;;;;;;5061005;28;20027;-73
2023/04/26 08:42:13;;;;;;;1999.90;999.90;;;19.30;99.90;;;;;;5054402;28;20153;-73
2023/04/26 08:44:43;;;;;;;1999.90;999.90;;;19.30;99.90;;;;;;5055201;28;20024;-74
2023/04/26 08:47:30;;;;;;;1999.90;999.90;;;19.30;99.90;;;;;;5051661;28;20029;-74
2023/04/26 08:50:01;;;;;;;1999.90;999.90;;;19.20;99.90;;;;;;5057675;28;20067;-73
2023/04/26 08:52:30;;;;;;;1999.90;999.90;;;19.20;99.90;;;;;;5049829;28;20044;-74
2023/04/26 08:54:58;;;;;;;1999.90;999.90;;;19.20;99.90;;;;;;5052858;28;20029;-74
2023/04/26 08:57:26;;;;;;;1999.90;999.90;;;19.20;99.90;;;;;;5060222;28;20033;-74
2023/04/26 08:59:56;;;;;;;1999.90;999.90;;;19.10;99.90;;;;;;5053953;28;20032;-71
2023/04/26 09:02:24;;;;;;;1999.90;999.90;;;19.10;99.90;;;;;;5052639;28;20056;-72
2023/04/26 09:04:51;;;;;;;1999.90;999.90;;;19.00;99.90;;;;;;5047357;28;20555;-72
2023/04/26 09:07:32;;;;;;;1999.90;999.90;;;19.00;99.90;;;;;;5056642;28;20040;-73
2023/04/26 09:10:00;;;;;;;1999.90;999.90;;;18.90;99.90;;;;;;5057613;28;20048;-72
2023/04/26 09:12:27;;;;;;;1999.90;999.90;;;18.80;99.90;;;;;;5053298;28;20029;-72
2023/04/26 09:14:55;;;;;;;1999.90;999.90;;;18.80;99.90;;;;;;5054198;28;20553;-72
2023/04/26 09:17:33;;;;;;;1999.90;999.90;;;18.80;99.90;;;;;;5052461;28;20044;-73
2023/04/26 09:20:17;;;;;;;1999.90;999.90;;;18.80;99.90;;;;;;5059734;28;20135;-72
2023/04/26 09:22:45;;;;;;;1999.90;999.90;;;18.70;99.90;;;;;;5050503;28;20482;-73
2023/04/26 09:25:15;;;;;;;1999.90;999.90;;;18.70;99.90;;;;;;5054643;28;20069;-73
2023/04/26 09:27:44;;;;;;;1999.90;999.90;;;18.70;99.90;;;;;;5055010;28;20550;-73
2023/04/26 09:30:17;;;;;;;1999.90;999.90;;;18.70;99.90;;;;;;5053568;28;20476;-73
2023/04/26 09:32:54;;;;;;;1999.90;999.90;;;18.70;99.90;;;;;;5051926;28;20036;-73
2023/04/26 09:35:23;;;;;;;1999.90;999.90;;;18.70;99.90;;;;;;5054004;28;20028;-73
2023/04/26 09:38:07;;;;;;;1999.90;999.90;;;18.70;99.90;;;;;;5050440;28;20498;-73
2023/04/26 09:40:42;;;;;;;1999.90;999.90;;;18.80;99.90;;;;;;5041428;28;20422;-73
2023/04/26 09:43:20;;;;;;;1999.90;999.90;;;18.80;99.90;;;;;;5043459;28;20029;-73
2023/04/26 09:45:52;;;;;;;1999.90;999.90;;;18.80;99.90;;;;;;5047323;28;20454;-73
2023/04/26 09:48:21;;;;;;;1999.90;999.90;;;18.80;99.90;;;;;;5046596;28;20048;-73
2023/04/26 09:50:59;;;;;;;1999.90;999.90;;;18.70;99.90;;;;;;5046013;28;20037;-72
2023/04/26 09:53:40;;;;;;;1999.90;999.90;;;18.70;99.90;;;;;;5046202;28;20573;-74
2023/04/26 09:56:18;;;;;;;1999.90;999.90;;;18.60;99.90;;;;;;5047522;28;20396;-74
2023/04/26 09:58:57;;;;;;;1999.90;999.90;;;18.50;99.90;;;;;;5053964;28;20029;-71
2023/04/26 10:01:28;;;;;;;1999.90;999.90;;;18.40;99.90;;;;;;5052116;28;20483;-73
2023/04/26 10:04:03;;;;;;;1999.90;999.90;;;18.30;99.90;;;;;;5053222;28;20764;-74
2023/04/26 10:06:31;;;;;;;1999.90;999.90;;;18.30;99.90;;;;;;5050895;28;20086;-73
2023/04/26 10:09:00;;;;;;;1999.90;999.90;;;18.20;99.90;;;;;;5050262;28;20484;-73
2023/04/26 10:11:28;;;;;;;1999.90;999.90;;;18.20;99.90;;;;;;5058059;28;20021;-72
2023/04/26 10:13:55;;;;;;;1999.90;999.90;;;18.20;99.90;;;;;;5053673;28;20105;-73
2023/04/26 10:16:24;;;;;;;1999.90;999.90;;;18.20;99.90;;;;;;5050801;28;20373;-74
2023/04/26 10:18:51;;;;;;;1999.90;999.90;;;18.10;99.90;;;;;;5054133;28;20029;-71
2023/04/26 10:21:27;;;;;;;1999.90;999.90;;;18.10;99.90;;;;;;5051560;28;20040;-74
2023/04/26 10:23:56;;;;;;;1999.90;999.90;;;18.20;99.90;;;;;;5049922;28;20021;-73
2023/04/26 10:26:53;;;;;;;1999.90;999.90;;;18.10;99.90;;;;;;5059607;28;20032;-73
2023/04/26 10:29:25;;;;;;;1999.90;999.90;;;18.10;99.90;;;;;;5053394;28;20041;-72
2023/04/26 10:32:10;;;;;;;1999.90;999.90;;;18.20;99.90;;;;;;5063910;28;20032;-73
2023/04/26 10:34:38;;;;;;;1999.90;999.90;;;18.20;99.90;;;;;;5052859;28;20039;-74
2023/04/26 10:37:10;;;;;;;1999.90;999.90;;;18.20;99.90;;;;;;5054958;28;20033;-72
2023/04/26 10:39:45;;;;;;;1999.90;999.90;;;18.10;99.90;;;;;;5053325;28;20028;-73
2023/04/26 10:42:23;;;;;;;1999.90;999.90;;;18.00;99.90;;;;;;5059127;28;20078;-73
2023/04/26 10:44:53;;;;;;;1999.90;999.90;;;18.00;99.90;;;;;;5049707;28;20033;-72
2023/04/26 10:47:29;;;;;;;1999.90;999.90;;;17.90;99.90;;;;;;5051787;28;20100;-73
2023/04/26 10:50:22;;;;;;;1999.90;999.90;;;17.90;99.90;;;;;;5053463;28;20144;-73
2023/04/26 10:53:04;;;;;;;1999.90;999.90;;;17.80;99.90;;;;;;5053514;28;20040;-74
2023/04/26 10:55:44;;;;;;;1999.90;999.90;;;17.70;99.90;;;;;;5055668;28;20477;-73
2023/04/26 10:58:27;;;;;;;1999.90;999.90;;;17.70;99.90;;;;;;5054782;28;20024;-74
2023/04/26 11:01:16;;;;;;;1999.90;999.90;;;17.70;99.90;;;;;;5055997;28;20037;-73
2023/04/26 11:04:04;;;;;;;1999.90;999.90;;;17.70;99.90;;;;;;5056487;28;20033;-74
2023/04/26 11:06:51;;;;;;;1999.90;999.90;;;17.80;99.90;;;;;;5052614;28;20115;-73
2023/04/26 11:09:38;;;;;;;1999.90;999.90;;;17.80;99.90;;;;;;5055852;28;20053;-75
2023/04/26 11:12:11;;;;;;;1999.90;999.90;;;17.80;99.90;;;;;;5061049;28;20100;-72
2023/04/26 11:14:40;;;;;;;1999.90;999.90;;;17.80;99.90;;;;;;5056783;28;20032;-72
2023/04/26 11:17:08;;;;;;;1999.90;999.90;;;17.80;99.90;;;;;;5063191;28;20435;-72
2023/04/26 11:19:36;;;;;;;1999.90;999.90;;;17.80;99.90;;;;;;5061457;28;20498;-72
2023/04/26 11:22:07;;;;;;;1999.90;999.90;;;17.70;99.90;;;;;;5060367;28;20116;-72
2023/04/26 11:24:38;;;;;;;1999.90;999.90;;;17.70;99.90;;;;;;5065568;28;20071;-72
2023/04/26 11:27:09;;;;;;;1999.90;999.90;;;17.70;99.90;;;;;;5055739;28;20511;-74
2023/04/26 11:29:38;;;;;;;1999.90;999.90;;;17.60;99.90;;;;;;5054540;28;20407;-72
2023/04/26 11:32:05;;;;;;;1999.90;999.90;;;17.60;99.90;;;;;;5053014;28;20104;-72
2023/04/26 11:34:34;;;;;;;1999.90;999.90;;;17.60;99.90;;;;;;5051965;28;20040;-73
2023/04/26 11:37:06;;;;;;;1999.90;999.90;;;17.60;99.90;;;;;;5053282;28;20025;-73
2023/04/26 11:39:34;;;;;;;1999.90;999.90;;;17.60;99.90;;;;;;5050225;28;20064;-73
2023/04/26 11:42:09;;;;;;;1999.90;999.90;;;17.60;99.90;;;;;;5048157;28;20056;-72
2023/04/26 11:44:37;;;;;;;1999.90;999.90;;;17.60;99.90;;;;;;5047991;28;20036;-73
2023/04/26 11:47:06;;;;;;;1999.90;999.90;;;17.60;99.90;;;;;;5044572;28;20545;-73
2023/04/26 11:49:35;;;;;;;1999.90;999.90;;;17.70;99.90;;;;;;5052374;28;20029;-72
2023/04/26 11:52:04;;;;;;;1999.90;999.90;;;17.70;99.90;;;;;;5047010;28;20029;-72
2023/04/26 11:54:34;;;;;;;1999.90;999.90;;;17.70;99.90;;;;;;5054800;28;20476;-73
2023/04/26 11:57:12;;;;;;;1999.90;999.90;;;17.70;99.90;;;;;;5048437;28;20113;-73
2023/04/26 11:59:40;;;;;;;1999.90;999.90;;;17.70;99.90;;;;;;5050957;28;20150;-72
2023/04/26 12:02:08;;;;;;;1999.90;999.90;;;17.60;99.90;;;;;;5049196;28;20063;-72
2023/04/26 12:04:40;;;;;;;1999.90;999.90;;;17.50;99.90;;;;;;5053297;28;20490;-72
2023/04/26 12:07:08;;;;;;;1999.90;999.90;;;17.40;99.90;;;;;;5051210;28;20466;-73
2023/04/26 12:09:39;;;;;;;1999.90;999.90;;;17.30;99.90;;;;;;5052698;28;20111;-72